HTML weather

Mahale Airstrip
Mahale, Tanzania

Public forecast

Using degrees Celsius for public forecast. Weather courtesy of forecast.io.

Closest aviation weather report (METAR) to Mahale Airstrip

Closest report is Kigoma Airport, 67.9 nm (125.7 km) N. Retrieved 2020/07/11 04:00 UTC (26 minutes ago):

HTKA 110400Z 12005KT 9999 SCT018 FEW019CB BKN080 21/17 Q1016 NOSIG

Closest aviation forecast (TAF) to Mahale Airstrip

Forecast is more than 12 hours old.

Closest forecast is Kigoma Airport, 67.9 nm (125.7 km) N. Retrieved 2020/07/06 12:24 UTC (5 days ago):

TAF HTKA 061100Z 0612/0712 00000KT FEW020 SCT090 BECMG 0612/0615 21010KT